Nevada Mills, Indiana
Current Conditions -  °F | °C
As of 1:35 PM on Thursday 18 Dec 2014 (Local Time) from KANQ Reporting Station
Overcast Overcast  
Wind Chill: 17°   Ceiling: 1000
Heat Index: 27°   Visibility: 7mi
Dew Point: 25°   Wind: 9mph
Humidity: 93%   Direction: 280°W
Pressure: 30.2"   Gusts: NA
Location:  41.6594°N, 85.0055°W
Report Text: KANQ 181835Z AUTO 28008KT 7SM OVC010 M03/M04 A3020 RMK
Loading
Personal Weather Stations






























Interactive Weather Map New forecast layout! Learn more

10-Day Weather Forecast

Advertisements
Track Severe Weather on mobile